Time;durP1;ratioP1;P1;durP2;ratioP2;P2;SDS_P1;SDS_P2;PMS_P1;PMS_P2;Temp;Humidity;BMP_temperature;BMP_pressure;BME280_temperature;BME280_humidity;BME280_pressure;Samples;Min_cycle;Max_cycle;Signal;HPM_P1;HPM_P2
2023/08/23 00:02:13;;;;;;;7.55;6.13;;;;;;;;;;5036095;28;20033;-63
2023/08/23 00:04:39;;;;;;;7.93;6.45;;;;;;;;;;5037178;28;20045;-62
2023/08/23 00:07:04;;;;;;;7.57;6.25;;;;;;;;;;5037167;28;20053;-63
2023/08/23 00:09:31;;;;;;;6.78;6.05;;;;;;;;;;5036644;28;20048;-66
2023/08/23 00:11:56;;;;;;;7.20;5.95;;;;;;;;;;5035911;28;20060;-66
2023/08/23 00:14:21;;;;;;;6.97;6.32;;;;;;;;;;5037016;28;20036;-66
2023/08/23 00:16:47;;;;;;;6.22;5.75;;;;;;;;;;5036670;28;20034;-66
2023/08/23 00:19:12;;;;;;;6.88;6.25;;;;;;;;;;5035344;28;20026;-68
2023/08/23 00:21:37;;;;;;;7.47;6.63;;;;;;;;;;5036592;28;20431;-68
2023/08/23 00:24:03;;;;;;;8.15;7.05;;;;;;;;;;5035716;28;20034;-65
2023/08/23 00:26:28;;;;;;;7.07;6.43;;;;;;;;;;5035580;28;20029;-65
2023/08/23 00:28:53;;;;;;;7.50;6.63;;;;;;;;;;5036463;28;20127;-65
2023/08/23 00:31:21;;;;;;;7.35;6.78;;;;;;;;;;5037001;28;20017;-67
2023/08/23 00:33:46;;;;;;;7.50;5.93;;;;;;;;;;5036672;28;20052;-68
2023/08/23 00:36:12;;;;;;;9.98;6.63;;;;;;;;;;5036642;28;20038;-67
2023/08/23 00:38:37;;;;;;;9.27;6.45;;;;;;;;;;5002122;28;20038;-67
2023/08/23 00:41:03;;;;;;;7.60;6.95;;;;;;;;;;5002235;28;20036;-67
2023/08/23 00:43:28;;;;;;;8.65;6.95;;;;;;;;;;5036227;28;20029;-67
2023/08/23 00:45:53;;;;;;;7.15;6.53;;;;;;;;;;5034917;28;20033;-67
2023/08/23 00:48:18;;;;;;;8.00;6.28;;;;;;;;;;5034895;28;20060;-67
2023/08/23 00:50:45;;;;;;;8.63;7.63;;;;;;;;;;5034869;28;20144;-67
2023/08/23 00:53:11;;;;;;;10.07;7.45;;;;;;;;;;5034783;28;20063;-68
2023/08/23 00:55:36;;;;;;;7.72;6.85;;;;;;;;;;5036227;28;20048;-68
2023/08/23 00:58:02;;;;;;;7.90;7.05;;;;;;;;;;5036240;28;20029;-67
2023/08/23 01:00:28;;;;;;;10.77;8.15;;;;;;;;;;5034569;28;20040;-65
2023/08/23 01:02:53;;;;;;;9.60;7.63;;;;;;;;;;5034635;28;20057;-65
2023/08/23 01:05:22;;;;;;;8.70;7.80;;;;;;;;;;5036091;28;20029;-65
2023/08/23 01:08:07;;;;;;;9.23;7.95;;;;;;;;;;5035619;28;20041;-65
2023/08/23 01:10:47;;;;;;;8.93;8.02;;;;;;;;;;5004471;28;20480;-65
2023/08/23 01:13:15;;;;;;;8.60;7.57;;;;;;;;;;5035163;28;20034;-63
2023/08/23 01:15:40;;;;;;;8.13;7.35;;;;;;;;;;5035989;28;20029;-58
2023/08/23 01:18:06;;;;;;;9.77;7.28;;;;;;;;;;5035869;28;20504;-58
2023/08/23 01:20:32;;;;;;;9.48;8.48;;;;;;;;;;5036024;28;20077;-58
2023/08/23 01:23:06;;;;;;;8.40;7.47;;;;;;;;;;5036025;28;20029;-58
2023/08/23 01:25:32;;;;;;;12.15;7.45;;;;;;;;;;5035439;28;20561;-59
2023/08/23 01:27:58;;;;;;;10.80;7.93;;;;;;;;;;5035395;28;20101;-59
2023/08/23 01:30:25;;;;;;;9.00;7.75;;;;;;;;;;5035353;28;20034;-58
2023/08/23 01:32:50;;;;;;;9.15;7.28;;;;;;;;;;5035343;28;20392;-61
2023/08/23 01:35:23;;;;;;;9.00;8.10;;;;;;;;;;5034107;28;20101;-61
2023/08/23 01:37:53;;;;;;;8.35;7.15;;;;;;;;;;5035486;28;20029;-61
2023/08/23 01:40:18;;;;;;;8.10;7.30;;;;;;;;;;5035115;28;20079;-61
2023/08/23 01:42:44;;;;;;;10.23;7.60;;;;;;;;;;5033827;28;20037;-61
2023/08/23 01:45:11;;;;;;;7.80;6.63;;;;;;;;;;5017872;28;20021;-61
2023/08/23 01:47:36;;;;;;;9.73;7.00;;;;;;;;;;5017522;28;20040;-61
2023/08/23 01:50:02;;;;;;;10.00;7.05;;;;;;;;;;5033758;28;20561;-61
2023/08/23 01:52:27;;;;;;;7.85;7.13;;;;;;;;;;5017134;28;20079;-61
2023/08/23 01:54:53;;;;;;;9.32;7.07;;;;;;;;;;5035167;28;20147;-61
2023/08/23 01:57:18;;;;;;;7.25;6.50;;;;;;;;;;5035402;28;20057;-61
2023/08/23 01:59:44;;;;;;;8.93;7.05;;;;;;;;;;5016958;28;20033;-61
2023/08/23 02:02:10;;;;;;;7.53;6.82;;;;;;;;;;5000728;28;20103;-61
2023/08/23 02:04:35;;;;;;;10.20;6.80;;;;;;;;;;5033462;28;20593;-61
2023/08/23 02:07:00;;;;;;;8.15;6.90;;;;;;;;;;5033366;28;20128;-61
2023/08/23 02:09:26;;;;;;;7.90;7.10;;;;;;;;;;5034490;28;20045;-61
2023/08/23 02:11:53;;;;;;;7.75;6.97;;;;;;;;;;5034569;28;20112;-61
2023/08/23 02:14:18;;;;;;;9.13;6.70;;;;;;;;;;5033262;28;20461;-61
2023/08/23 02:16:43;;;;;;;9.20;7.13;;;;;;;;;;5034490;28;20412;-61
2023/08/23 02:19:08;;;;;;;8.38;6.72;;;;;;;;;;5033029;28;20033;-60
2023/08/23 02:21:34;;;;;;;8.77;6.50;;;;;;;;;;5033126;28;20128;-60
2023/08/23 02:24:00;;;;;;;10.23;6.93;;;;;;;;;;5032790;28;20028;-61
2023/08/23 02:26:25;;;;;;;8.60;7.03;;;;;;;;;;5033016;28;20025;-62
2023/08/23 02:28:50;;;;;;;7.38;6.57;;;;;;;;;;5034242;28;20471;-60
2023/08/23 02:31:16;;;;;;;8.00;7.05;;;;;;;;;;5034461;28;20032;-60
2023/08/23 02:33:41;;;;;;;8.38;7.50;;;;;;;;;;5034434;28;20034;-60
2023/08/23 02:36:07;;;;;;;7.65;6.82;;;;;;;;;;5033153;28;20116;-60
2023/08/23 02:38:32;;;;;;;7.32;6.63;;;;;;;;;;5016372;28;20137;-61
2023/08/23 02:40:57;;;;;;;7.03;6.45;;;;;;;;;;5033990;28;20022;-61
2023/08/23 02:43:24;;;;;;;7.97;6.30;;;;;;;;;;5016341;28;20400;-63
2023/08/23 02:45:50;;;;;;;9.05;6.63;;;;;;;;;;5032694;28;20167;-61
2023/08/23 02:48:15;;;;;;;7.22;6.50;;;;;;;;;;5034215;28;20041;-61
2023/08/23 02:50:42;;;;;;;7.18;6.53;;;;;;;;;;5033924;28;20466;-61
2023/08/23 02:53:08;;;;;;;7.85;6.97;;;;;;;;;;5016165;28;20033;-61
2023/08/23 02:55:35;;;;;;;7.32;6.60;;;;;;;;;;5034121;28;20021;-61
2023/08/23 02:58:01;;;;;;;7.60;6.88;;;;;;;;;;5016494;28;20453;-61
2023/08/23 03:00:26;;;;;;;7.78;6.85;;;;;;;;;;5033687;28;20028;-61
2023/08/23 03:02:51;;;;;;;7.13;6.43;;;;;;;;;;5016675;28;20026;-62
2023/08/23 03:05:16;;;;;;;8.35;6.82;;;;;;;;;;5034295;28;20033;-62
2023/08/23 03:07:43;;;;;;;8.48;6.82;;;;;;;;;;5016066;28;20026;-62
2023/08/23 03:10:09;;;;;;;10.60;6.97;;;;;;;;;;5033615;28;20112;-62
2023/08/23 03:12:35;;;;;;;7.15;6.40;;;;;;;;;;5032372;28;20529;-63
2023/08/23 03:15:00;;;;;;;9.48;7.18;;;;;;;;;;5033591;28;20033;-62
2023/08/23 03:17:25;;;;;;;8.18;6.57;;;;;;;;;;5034108;28;20362;-62
2023/08/23 03:19:51;;;;;;;9.07;7.38;;;;;;;;;;5033507;28;20496;-62
2023/08/23 03:22:16;;;;;;;7.35;6.55;;;;;;;;;;5015785;28;20025;-61
2023/08/23 03:24:42;;;;;;;9.13;7.50;;;;;;;;;;5033759;28;20021;-61
2023/08/23 03:27:07;;;;;;;8.27;7.43;;;;;;;;;;5034049;28;20217;-61
2023/08/23 03:29:32;;;;;;;7.80;7.00;;;;;;;;;;5015741;28;20040;-63
2023/08/23 03:31:58;;;;;;;9.10;7.22;;;;;;;;;;5032189;28;20067;-61
2023/08/23 03:34:24;;;;;;;7.75;6.90;;;;;;;;;;5032159;28;20029;-61
2023/08/23 03:36:51;;;;;;;6.85;6.15;;;;;;;;;;5036225;28;20106;-61
2023/08/23 03:39:16;;;;;;;8.05;7.25;;;;;;;;;;5019586;28;20021;-66
2023/08/23 03:41:42;;;;;;;8.82;7.93;;;;;;;;;;5036183;28;20026;-60
2023/08/23 03:44:08;;;;;;;9.05;8.15;;;;;;;;;;5036103;28;20026;-60
2023/08/23 03:46:33;;;;;;;11.15;8.43;;;;;;;;;;5036033;28;20048;-60
2023/08/23 03:48:58;;;;;;;8.93;8.00;;;;;;;;;;5037259;28;20386;-60
2023/08/23 03:51:24;;;;;;;8.32;7.55;;;;;;;;;;5036076;28;20467;-61
2023/08/23 03:53:50;;;;;;;9.73;7.90;;;;;;;;;;5036222;28;20429;-61
2023/08/23 03:56:16;;;;;;;9.57;7.80;;;;;;;;;;5035893;28;20033;-61
2023/08/23 03:58:41;;;;;;;8.75;7.57;;;;;;;;;;5036991;28;20117;-61
2023/08/23 04:01:07;;;;;;;8.48;7.68;;;;;;;;;;5035763;28;20136;-61
2023/08/23 04:03:33;;;;;;;12.25;7.38;;;;;;;;;;5035721;28;20532;-62
2023/08/23 04:06:00;;;;;;;8.45;7.63;;;;;;;;;;5037206;28;20021;-61
2023/08/23 04:08:26;;;;;;;9.10;7.55;;;;;;;;;;5018979;28;20037;-61
2023/08/23 04:10:51;;;;;;;10.02;7.15;;;;;;;;;;5036883;28;20590;-61
2023/08/23 04:13:17;;;;;;;8.77;7.85;;;;;;;;;;5037343;28;20044;-62
2023/08/23 04:15:43;;;;;;;10.25;7.90;;;;;;;;;;5018984;28;20394;-62
2023/08/23 04:18:09;;;;;;;8.90;7.97;;;;;;;;;;5035458;28;20030;-62
2023/08/23 04:20:34;;;;;;;7.95;7.22;;;;;;;;;;5036673;28;20041;-68
2023/08/23 04:23:01;;;;;;;10.10;7.57;;;;;;;;;;5035133;28;20053;-70
2023/08/23 04:25:27;;;;;;;8.93;8.13;;;;;;;;;;5018741;28;20084;-62
2023/08/23 04:27:52;;;;;;;9.90;8.75;;;;;;;;;;5018793;28;20386;-64
2023/08/23 04:30:18;;;;;;;12.15;8.00;;;;;;;;;;5035516;28;20029;-66
2023/08/23 04:32:44;;;;;;;8.98;7.90;;;;;;;;;;5035354;28;20030;-66
2023/08/23 04:35:09;;;;;;;10.00;7.47;;;;;;;;;;5035031;28;20056;-66
2023/08/23 04:37:36;;;;;;;12.57;9.32;;;;;;;;;;5034175;28;20408;-66
2023/08/23 04:40:04;;;;;;;14.07;10.13;;;;;;;;;;5034134;28;20029;-66
2023/08/23 04:42:30;;;;;;;12.00;9.90;;;;;;;;;;5017234;28;20021;-66
2023/08/23 04:44:56;;;;;;;13.82;12.30;;;;;;;;;;5034369;28;20506;-66
2023/08/23 04:47:21;;;;;;;13.98;10.63;;;;;;;;;;5001726;28;20488;-66
2023/08/23 04:49:47;;;;;;;11.20;9.07;;;;;;;;;;5034606;28;20109;-66
2023/08/23 04:52:12;;;;;;;14.85;11.20;;;;;;;;;;5018117;28;20029;-66
2023/08/23 04:54:38;;;;;;;14.50;11.30;;;;;;;;;;5018068;28;20373;-66
2023/08/23 04:57:04;;;;;;;13.85;11.20;;;;;;;;;;5035731;28;20503;-65
2023/08/23 04:59:29;;;;;;;19.02;14.38;;;;;;;;;;5034404;28;20029;-65
2023/08/23 05:01:57;;;;;;;15.70;13.35;;;;;;;;;;5035489;28;20023;-65
2023/08/23 05:04:23;;;;;;;13.48;11.00;;;;;;;;;;5017644;28;20025;-65
2023/08/23 05:06:48;;;;;;;14.32;11.48;;;;;;;;;;5033869;28;20485;-65
2023/08/23 05:09:14;;;;;;;18.80;13.18;;;;;;;;;;5034916;28;20107;-65
2023/08/23 05:11:39;;;;;;;15.75;12.38;;;;;;;;;;5017573;28;20128;-65
2023/08/23 05:14:05;;;;;;;19.40;14.23;;;;;;;;;;5017709;28;20037;-65
2023/08/23 05:16:31;;;;;;;21.35;14.30;;;;;;;;;;5034075;28;20033;-65
2023/08/23 05:18:56;;;;;;;18.33;14.68;;;;;;;;;;5000759;28;20087;-65
2023/08/23 05:21:22;;;;;;;17.42;13.73;;;;;;;;;;5017491;28;20107;-65
2023/08/23 05:23:47;;;;;;;15.75;13.75;;;;;;;;;;5035198;28;20017;-66
2023/08/23 05:26:13;;;;;;;13.75;11.85;;;;;;;;;;5017454;28;20028;-66
2023/08/23 05:28:39;;;;;;;17.48;12.80;;;;;;;;;;5017351;28;20032;-66
2023/08/23 05:31:05;;;;;;;17.38;14.10;;;;;;;;;;5033935;28;20033;-66
2023/08/23 05:33:32;;;;;;;16.35;13.02;;;;;;;;;;5017186;28;20488;-66
2023/08/23 05:35:59;;;;;;;14.65;12.30;;;;;;;;;;5034230;28;20095;-66
2023/08/23 05:38:24;;;;;;;18.45;12.95;;;;;;;;;;5017135;28;20037;-66
2023/08/23 05:40:51;;;;;;;23.70;17.05;;;;;;;;;;5016682;28;20025;-66
2023/08/23 05:43:17;;;;;;;25.58;19.90;;;;;;;;;;5016547;28;20030;-66
2023/08/23 05:45:44;;;;;;;20.00;16.60;;;;;;;;;;5034328;28;20033;-66
2023/08/23 05:48:10;;;;;;;18.65;14.60;;;;;;;;;;5033225;28;20037;-66
2023/08/23 05:50:36;;;;;;;18.65;14.18;;;;;;;;;;5032763;28;20040;-66
2023/08/23 05:53:04;;;;;;;23.40;15.60;;;;;;;;;;5034346;28;20034;-66
2023/08/23 05:55:29;;;;;;;25.98;16.42;;;;;;;;;;5034734;28;20049;-65
2023/08/23 05:57:54;;;;;;;18.63;14.40;;;;;;;;;;5015236;28;20481;-65
2023/08/23 06:00:21;;;;;;;17.35;13.55;;;;;;;;;;5034057;28;20030;-66
2023/08/23 06:02:46;;;;;;;15.25;12.88;;;;;;;;;;5033480;28;20425;-66
2023/08/23 06:05:13;;;;;;;331.50;49.72;;;;;;;;;;5034156;28;20091;-62
2023/08/23 06:07:39;;;;;;;25.77;16.45;;;;;;;;;;5016482;28;20026;-62
2023/08/23 06:10:04;;;;;;;18.52;12.45;;;;;;;;;;5033066;28;20724;-62
2023/08/23 06:12:31;;;;;;;14.65;12.45;;;;;;;;;;5033994;28;20745;-61
2023/08/23 06:14:56;;;;;;;14.45;12.18;;;;;;;;;;5034211;28;20057;-62
2023/08/23 06:17:21;;;;;;;15.98;12.95;;;;;;;;;;5016705;28;20053;-62
2023/08/23 06:19:47;;;;;;;14.65;12.98;;;;;;;;;;5022381;28;20092;-62
2023/08/23 06:22:12;;;;;;;11.95;10.13;;;;;;;;;;5014083;28;20022;-62
2023/08/23 06:24:38;;;;;;;17.23;13.10;;;;;;;;;;5013875;28;20033;-63
2023/08/23 06:27:03;;;;;;;15.88;12.45;;;;;;;;;;5012770;28;20030;-62
2023/08/23 06:29:28;;;;;;;13.43;10.70;;;;;;;;;;5016530;28;20416;-62
2023/08/23 06:31:54;;;;;;;12.65;11.18;;;;;;;;;;5013913;28;20040;-62
2023/08/23 06:34:19;;;;;;;14.35;11.95;;;;;;;;;;5013772;28;20509;-61
2023/08/23 06:36:45;;;;;;;14.23;12.15;;;;;;;;;;5013658;28;20490;-61
2023/08/23 06:39:10;;;;;;;15.68;12.23;;;;;;;;;;5012214;28;20044;-61
2023/08/23 06:41:36;;;;;;;13.02;11.35;;;;;;;;;;5012527;28;20030;-62
2023/08/23 06:44:02;;;;;;;14.30;11.90;;;;;;;;;;5013676;28;20017;-65
2023/08/23 06:46:28;;;;;;;61.58;12.50;;;;;;;;;;5013510;28;20037;-66
2023/08/23 06:48:53;;;;;;;18.02;13.50;;;;;;;;;;5013803;28;20018;-62
2023/08/23 06:51:20;;;;;;;15.18;11.40;;;;;;;;;;5013878;28;20112;-65
2023/08/23 06:53:46;;;;;;;11.90;10.65;;;;;;;;;;5013939;28;20515;-66
2023/08/23 06:56:11;;;;;;;18.05;12.63;;;;;;;;;;5012598;28;20022;-66
2023/08/23 06:58:37;;;;;;;13.63;10.80;;;;;;;;;;5014192;28;20022;-66
2023/08/23 07:01:05;;;;;;;13.77;11.90;;;;;;;;;;5013909;28;20060;-66
2023/08/23 07:03:31;;;;;;;14.20;11.02;;;;;;;;;;5014006;28;20117;-66
2023/08/23 07:05:56;;;;;;;17.25;13.50;;;;;;;;;;5014076;28;20101;-65
2023/08/23 07:08:23;;;;;;;14.95;11.80;;;;;;;;;;5012282;28;20505;-66
2023/08/23 07:10:48;;;;;;;16.58;13.23;;;;;;;;;;5012634;28;20416;-66
2023/08/23 07:13:13;;;;;;;15.23;11.95;;;;;;;;;;4997916;28;20041;-65
2023/08/23 07:15:40;;;;;;;11.77;9.88;;;;;;;;;;5022602;28;20481;-66
2023/08/23 07:18:08;;;;;;;9.63;8.68;;;;;;;;;;4995964;28;20113;-65
2023/08/23 07:20:33;;;;;;;10.93;9.20;;;;;;;;;;5013486;28;20433;-65
2023/08/23 07:22:58;;;;;;;10.48;8.73;;;;;;;;;;5021562;28;20026;-65
2023/08/23 07:25:23;;;;;;;10.30;9.32;;;;;;;;;;5033106;28;20025;-76
2023/08/23 07:27:52;;;;;;;9.85;8.57;;;;;;;;;;5015487;28;20047;-73
2023/08/23 07:30:17;;;;;;;9.52;8.57;;;;;;;;;;5015401;28;20034;-72
2023/08/23 07:32:43;;;;;;;12.20;10.98;;;;;;;;;;5032931;28;20396;-64
2023/08/23 07:35:08;;;;;;;17.60;11.27;;;;;;;;;;5032704;28;20386;-72
2023/08/23 07:37:34;;;;;;;9.48;8.60;;;;;;;;;;5033260;28;20029;-72
2023/08/23 07:39:59;;;;;;;8.90;7.97;;;;;;;;;;5033009;28;20120;-72
2023/08/23 07:42:25;;;;;;;13.70;10.02;;;;;;;;;;5033349;28;20116;-71
2023/08/23 07:44:50;;;;;;;8.20;7.35;;;;;;;;;;5033191;28;20100;-72
2023/08/23 07:47:16;;;;;;;10.05;8.95;;;;;;;;;;5033287;28;20029;-71
2023/08/23 07:49:42;;;;;;;11.52;8.68;;;;;;;;;;5033087;28;20437;-70
2023/08/23 07:52:07;;;;;;;11.40;7.78;;;;;;;;;;4999192;28;20477;-71
2023/08/23 07:54:32;;;;;;;8.98;7.72;;;;;;;;;;5033314;28;20029;-71
2023/08/23 07:56:58;;;;;;;7.75;6.93;;;;;;;;;;5032896;28;20477;-71
2023/08/23 07:59:23;;;;;;;8.95;6.88;;;;;;;;;;5032316;28;20125;-71
2023/08/23 08:01:49;;;;;;;8.73;7.80;;;;;;;;;;5032711;28;20071;-70
2023/08/23 08:04:14;;;;;;;109.20;17.17;;;;;;;;;;5032443;28;20029;-71
2023/08/23 08:06:39;;;;;;;12.23;9.07;;;;;;;;;;5015291;28;20022;-71
2023/08/23 08:09:05;;;;;;;9.05;7.35;;;;;;;;;;5033005;28;20552;-70
2023/08/23 08:11:31;;;;;;;8.35;7.28;;;;;;;;;;5033052;28;20052;-71
2023/08/23 08:13:57;;;;;;;8.55;6.97;;;;;;;;;;5015326;28;20074;-71
2023/08/23 08:16:22;;;;;;;10.25;7.85;;;;;;;;;;5033220;28;20119;-71
2023/08/23 08:18:48;;;;;;;7.40;6.57;;;;;;;;;;5032888;28;20017;-71
2023/08/23 08:21:13;;;;;;;9.35;7.18;;;;;;;;;;5034048;28;20040;-71
2023/08/23 08:23:39;;;;;;;9.27;8.18;;;;;;;;;;5036412;28;20021;-71
2023/08/23 08:26:07;;;;;;;8.70;6.28;;;;;;;;;;5002541;28;20413;-71
2023/08/23 08:28:32;;;;;;;9.20;8.30;;;;;;;;;;5019059;28;20087;-71
2023/08/23 08:30:58;;;;;;;9.48;7.32;;;;;;;;;;5036523;28;20037;-71
2023/08/23 08:33:24;;;;;;;8.32;7.47;;;;;;;;;;5036635;28;20030;-71
2023/08/23 08:35:49;;;;;;;10.00;7.65;;;;;;;;;;5018807;28;20046;-71
2023/08/23 08:38:14;;;;;;;11.75;7.05;;;;;;;;;;5036671;28;20480;-71
2023/08/23 08:40:40;;;;;;;9.75;7.45;;;;;;;;;;5002185;28;20025;-71
2023/08/23 08:43:06;;;;;;;9.55;7.03;;;;;;;;;;5036499;28;20498;-71
2023/08/23 08:45:31;;;;;;;7.75;7.05;;;;;;;;;;5018550;28;20033;-72
2023/08/23 08:47:57;;;;;;;9.77;6.28;;;;;;;;;;5019185;28;20112;-71
2023/08/23 08:50:24;;;;;;;11.02;7.25;;;;;;;;;;5036641;28;20072;-71
2023/08/23 08:52:51;;;;;;;7.97;7.35;;;;;;;;;;5036152;28;20021;-71
2023/08/23 08:55:18;;;;;;;9.02;6.70;;;;;;;;;;5036199;28;20037;-71
2023/08/23 08:57:45;;;;;;;6.82;6.20;;;;;;;;;;5018671;28;20037;-71
2023/08/23 09:00:11;;;;;;;6.97;5.82;;;;;;;;;;5018520;28;20457;-71
2023/08/23 09:02:39;;;;;;;8.27;6.32;;;;;;;;;;5018419;28;20032;-71
2023/08/23 09:05:06;;;;;;;6.90;6.05;;;;;;;;;;5036452;28;20033;-69
2023/08/23 09:07:32;;;;;;;7.65;6.78;;;;;;;;;;5017751;28;20048;-68
2023/08/23 09:09:57;;;;;;;6.97;6.35;;;;;;;;;;5036260;28;20022;-69
2023/08/23 09:12:23;;;;;;;6.60;6.07;;;;;;;;;;5035708;28;20037;-69
2023/08/23 09:14:51;;;;;;;7.38;6.60;;;;;;;;;;5035782;28;20109;-68
2023/08/23 09:17:20;;;;;;;6.50;6.05;;;;;;;;;;5035657;28;20033;-68
2023/08/23 09:19:45;;;;;;;6.88;6.28;;;;;;;;;;5035590;28;20025;-69
2023/08/23 09:22:18;;;;;;;7.63;5.53;;;;;;;;;;5017723;28;20032;-69
2023/08/23 09:24:43;;;;;;;6.07;5.57;;;;;;;;;;5035575;28;20427;-71
2023/08/23 09:27:09;;;;;;;8.48;6.70;;;;;;;;;;5035394;28;20025;-71
2023/08/23 09:29:35;;;;;;;6.90;6.20;;;;;;;;;;5017846;28;20038;-71
2023/08/23 09:32:00;;;;;;;7.70;6.70;;;;;;;;;;5035361;28;20140;-71
2023/08/23 09:34:25;;;;;;;7.63;5.85;;;;;;;;;;5034781;28;20033;-71
2023/08/23 09:36:51;;;;;;;5.43;5.03;;;;;;;;;;5001204;28;20106;-71
2023/08/23 09:39:17;;;;;;;6.60;5.90;;;;;;;;;;5035124;28;20037;-72
2023/08/23 09:41:42;;;;;;;8.82;5.88;;;;;;;;;;5017653;28;20030;-72
2023/08/23 09:44:08;;;;;;;5.97;5.47;;;;;;;;;;5034132;28;20035;-71
2023/08/23 09:46:35;;;;;;;5.85;5.35;;;;;;;;;;5034010;28;20080;-71
2023/08/23 09:49:02;;;;;;;6.32;5.72;;;;;;;;;;5017379;28;20473;-71
2023/08/23 09:51:28;;;;;;;6.43;5.22;;;;;;;;;;5035274;28;20033;-69
2023/08/23 09:53:56;;;;;;;7.03;5.22;;;;;;;;;;5035532;28;20469;-69
2023/08/23 09:56:23;;;;;;;6.13;5.43;;;;;;;;;;5035237;28;20017;-69
2023/08/23 09:58:49;;;;;;;5.28;4.88;;;;;;;;;;5035074;28;20033;-69
2023/08/23 10:01:15;;;;;;;5.50;5.07;;;;;;;;;;5034841;28;20068;-69
2023/08/23 10:03:41;;;;;;;5.88;5.30;;;;;;;;;;5034841;28;20065;-69
2023/08/23 10:06:07;;;;;;;6.00;5.43;;;;;;;;;;5034993;28;20025;-69
2023/08/23 10:08:34;;;;;;;5.75;5.20;;;;;;;;;;5017068;28;20045;-69
2023/08/23 10:10:59;;;;;;;5.43;5.03;;;;;;;;;;5017332;28;20461;-69
2023/08/23 10:13:25;;;;;;;6.40;5.43;;;;;;;;;;5034561;28;20037;-69
2023/08/23 10:15:53;;;;;;;7.25;5.22;;;;;;;;;;5016887;28;20036;-71
2023/08/23 10:18:19;;;;;;;5.63;5.05;;;;;;;;;;5035050;28;20037;-71
2023/08/23 10:20:44;;;;;;;5.25;4.82;;;;;;;;;;5034675;28;20045;-71
2023/08/23 10:23:17;;;;;;;5.30;4.80;;;;;;;;;;5034708;28;20021;-71
2023/08/23 10:25:43;;;;;;;5.70;5.20;;;;;;;;;;5034627;28;20053;-71
2023/08/23 10:28:08;;;;;;;5.38;4.88;;;;;;;;;;5017004;28;20033;-69
2023/08/23 10:30:34;;;;;;;5.40;4.95;;;;;;;;;;5034583;28;20120;-69
2023/08/23 10:33:12;;;;;;;5.35;4.85;;;;;;;;;;5034753;28;20076;-69
2023/08/23 10:35:38;;;;;;;5.15;4.28;;;;;;;;;;5016858;28;20044;-69
2023/08/23 10:38:08;;;;;;;5.15;4.68;;;;;;;;;;5034022;28;20041;-69
2023/08/23 10:40:33;;;;;;;6.73;4.90;;;;;;;;;;5034020;28;20057;-69
2023/08/23 10:43:02;;;;;;;5.78;5.00;;;;;;;;;;5034179;28;20437;-69
2023/08/23 10:45:27;;;;;;;5.28;4.82;;;;;;;;;;5034060;28;20025;-69
2023/08/23 10:47:53;;;;;;;4.55;4.10;;;;;;;;;;5033963;28;20026;-70
2023/08/23 10:50:19;;;;;;;4.40;4.10;;;;;;;;;;5033890;28;20385;-69
2023/08/23 10:52:47;;;;;;;5.40;4.55;;;;;;;;;;5016308;28;20029;-69
2023/08/23 10:55:12;;;;;;;4.45;4.05;;;;;;;;;;5034146;28;20124;-69
2023/08/23 10:57:37;;;;;;;4.90;4.45;;;;;;;;;;5034587;28;20116;-69
2023/08/23 11:00:03;;;;;;;5.22;4.03;;;;;;;;;;5034001;28;20052;-69
2023/08/23 11:02:30;;;;;;;6.93;4.35;;;;;;;;;;5034332;28;20053;-69
2023/08/23 11:04:55;;;;;;;5.57;4.20;;;;;;;;;;5016032;28;20503;-69
2023/08/23 11:07:23;;;;;;;4.57;4.13;;;;;;;;;;5033865;28;20093;-68
2023/08/23 11:09:49;;;;;;;6.20;4.30;;;;;;;;;;5033740;28;20096;-68
2023/08/23 11:12:14;;;;;;;4.57;4.18;;;;;;;;;;5016256;28;20033;-68
2023/08/23 11:14:39;;;;;;;4.72;4.32;;;;;;;;;;5033655;28;20063;-68
2023/08/23 11:17:07;;;;;;;5.03;4.35;;;;;;;;;;5016112;28;20029;-70
2023/08/23 11:19:32;;;;;;;4.68;4.25;;;;;;;;;;5033768;28;20105;-70
2023/08/23 11:21:59;;;;;;;4.80;4.40;;;;;;;;;;5015830;28;20520;-70
2023/08/23 11:24:25;;;;;;;5.45;4.05;;;;;;;;;;5033791;28;20072;-70
2023/08/23 11:26:50;;;;;;;5.15;4.10;;;;;;;;;;5016434;28;20032;-70
2023/08/23 11:29:17;;;;;;;5.78;4.00;;;;;;;;;;5033520;28;20029;-70
2023/08/23 11:31:51;;;;;;;5.20;4.40;;;;;;;;;;5015770;28;20021;-70
2023/08/23 11:34:17;;;;;;;7.82;4.20;;;;;;;;;;5034023;28;20358;-70
2023/08/23 11:36:43;;;;;;;3.92;3.67;;;;;;;;;;5015699;28;20029;-65
2023/08/23 11:39:08;;;;;;;4.90;4.50;;;;;;;;;;5032407;28;20036;-65
2023/08/23 11:41:34;;;;;;;4.95;4.03;;;;;;;;;;5033838;28;20496;-64
2023/08/23 11:44:03;;;;;;;4.53;4.15;;;;;;;;;;5033857;28;20056;-64
2023/08/23 11:46:29;;;;;;;4.75;4.40;;;;;;;;;;5033647;28;20029;-64
2023/08/23 11:48:54;;;;;;;5.88;4.35;;;;;;;;;;5033854;28;20029;-64
2023/08/23 11:51:20;;;;;;;4.95;4.43;;;;;;;;;;5033944;28;20057;-64
2023/08/23 11:53:55;;;;;;;4.38;4.03;;;;;;;;;;4999101;28;20073;-62
2023/08/23 11:56:21;;;;;;;4.82;4.38;;;;;;;;;;5034632;28;20030;-62
2023/08/23 11:58:47;;;;;;;4.63;4.22;;;;;;;;;;5019501;28;20052;-62
2023/08/23 12:01:14;;;;;;;5.60;3.97;;;;;;;;;;5037235;28;20029;-62
2023/08/23 12:03:39;;;;;;;4.43;4.00;;;;;;;;;;5019826;28;20108;-62
2023/08/23 12:06:06;;;;;;;4.28;3.97;;;;;;;;;;5037071;28;20113;-62
2023/08/23 12:08:33;;;;;;;4.03;3.60;;;;;;;;;;5036807;28;20091;-62
2023/08/23 12:10:59;;;;;;;4.70;4.20;;;;;;;;;;5036923;28;20533;-62
2023/08/23 12:13:24;;;;;;;4.35;3.92;;;;;;;;;;5037260;28;20113;-62
2023/08/23 12:15:49;;;;;;;4.95;4.05;;;;;;;;;;5037105;28;20026;-62
2023/08/23 12:18:15;;;;;;;4.20;3.78;;;;;;;;;;5035509;28;20369;-60
2023/08/23 12:20:40;;;;;;;4.45;4.05;;;;;;;;;;5036955;28;20044;-60
2023/08/23 12:23:05;;;;;;;7.10;4.38;;;;;;;;;;5036721;28;20022;-60
2023/08/23 12:25:31;;;;;;;4.13;3.83;;;;;;;;;;5036883;28;20083;-60
2023/08/23 12:27:56;;;;;;;4.47;3.97;;;;;;;;;;5036162;28;20036;-60
2023/08/23 12:30:21;;;;;;;18.60;5.15;;;;;;;;;;5037339;28;20468;-59
2023/08/23 12:32:47;;;;;;;5.13;4.55;;;;;;;;;;5018758;28;20037;-60
2023/08/23 12:35:12;;;;;;;6.57;4.80;;;;;;;;;;5037216;28;20167;-60
2023/08/23 12:37:38;;;;;;;5.60;4.28;;;;;;;;;;5036573;28;20032;-60
2023/08/23 12:40:09;;;;;;;4.88;3.65;;;;;;;;;;5018703;28;20397;-64
2023/08/23 12:42:36;;;;;;;4.07;3.78;;;;;;;;;;5036874;28;20048;-65
2023/08/23 12:45:01;;;;;;;6.55;4.25;;;;;;;;;;5035035;28;20025;-65
2023/08/23 12:47:26;;;;;;;6.75;4.55;;;;;;;;;;5036723;28;20071;-65
2023/08/23 12:49:52;;;;;;;4.45;4.13;;;;;;;;;;5035757;28;20360;-65
2023/08/23 12:52:18;;;;;;;4.70;4.00;;;;;;;;;;5034588;28;20029;-66
2023/08/23 12:54:44;;;;;;;5.90;5.00;;;;;;;;;;5035648;28;20025;-65
2023/08/23 12:57:09;;;;;;;4.47;4.15;;;;;;;;;;5035519;28;20017;-60
2023/08/23 12:59:34;;;;;;;7.15;4.63;;;;;;;;;;5035469;28;20034;-60
2023/08/23 13:02:00;;;;;;;8.32;4.80;;;;;;;;;;5032902;28;20022;-60
2023/08/23 13:04:25;;;;;;;4.32;3.92;;;;;;;;;;5035759;28;20523;-59
2023/08/23 13:06:51;;;;;;;9.95;4.10;;;;;;;;;;5035538;28;20044;-59
2023/08/23 13:09:16;;;;;;;3.72;3.53;;;;;;;;;;5034708;28;20504;-59
2023/08/23 13:11:41;;;;;;;6.40;3.47;;;;;;;;;;5016846;28;20022;-62
2023/08/23 13:14:07;;;;;;;3.97;3.67;;;;;;;;;;5016938;28;20389;-62
2023/08/23 13:16:32;;;;;;;3.97;3.40;;;;;;;;;;5034569;28;20021;-62
2023/08/23 13:18:57;;;;;;;3.78;3.42;;;;;;;;;;5034623;28;20072;-67
2023/08/23 13:21:23;;;;;;;4.80;3.33;;;;;;;;;;5034400;28;20116;-68
2023/08/23 13:23:48;;;;;;;4.18;3.78;;;;;;;;;;5034507;28;20061;-62
2023/08/23 13:26:14;;;;;;;4.15;3.85;;;;;;;;;;5033168;28;20027;-62
2023/08/23 13:28:39;;;;;;;5.00;4.25;;;;;;;;;;5034749;28;20025;-63
2023/08/23 13:31:04;;;;;;;9.02;4.70;;;;;;;;;;5035292;28;20377;-62
2023/08/23 13:33:30;;;;;;;4.05;3.65;;;;;;;;;;5035152;28;20091;-62
2023/08/23 13:35:56;;;;;;;6.18;4.07;;;;;;;;;;5017293;28;20438;-62
2023/08/23 13:38:22;;;;;;;4.32;3.92;;;;;;;;;;5035081;28;20021;-62
2023/08/23 13:40:47;;;;;;;4.75;3.95;;;;;;;;;;5034249;28;20358;-68
2023/08/23 13:43:13;;;;;;;5.20;4.45;;;;;;;;;;5034240;28;20022;-65
2023/08/23 13:45:39;;;;;;;4.57;3.70;;;;;;;;;;5034041;28;20025;-60
2023/08/23 13:48:04;;;;;;;4.30;3.80;;;;;;;;;;5034873;28;20489;-60
2023/08/23 13:50:29;;;;;;;5.65;4.70;;;;;;;;;;5035045;28;20033;-60
2023/08/23 13:52:55;;;;;;;5.72;4.80;;;;;;;;;;5017723;28;20033;-60
2023/08/23 13:55:20;;;;;;;6.10;4.32;;;;;;;;;;5034692;28;20079;-59
2023/08/23 13:57:46;;;;;;;4.82;4.43;;;;;;;;;;5034845;28;20041;-59
2023/08/23 14:00:11;;;;;;;4.95;4.55;;;;;;;;;;5035091;28;20056;-60
2023/08/23 14:02:37;;;;;;;4.18;3.88;;;;;;;;;;5034924;28;20469;-60
2023/08/23 14:05:02;;;;;;;4.07;3.70;;;;;;;;;;5032956;28;20037;-60
2023/08/23 14:07:28;;;;;;;4.28;3.97;;;;;;;;;;5032588;28;20040;-60
2023/08/23 14:09:53;;;;;;;4.65;4.22;;;;;;;;;;5032796;28;20034;-60
2023/08/23 14:12:18;;;;;;;3.70;3.40;;;;;;;;;;5032814;28;20103;-60
2023/08/23 14:14:44;;;;;;;4.45;3.40;;;;;;;;;;5033396;28;20029;-59
2023/08/23 14:17:09;;;;;;;4.50;4.18;;;;;;;;;;5033351;28;20025;-60
2023/08/23 14:19:43;;;;;;;4.60;4.32;;;;;;;;;;5015921;28;20465;-60
2023/08/23 14:22:08;;;;;;;4.65;4.25;;;;;;;;;;5034488;28;20036;-61
2023/08/23 14:24:34;;;;;;;4.30;4.00;;;;;;;;;;5034724;28;20030;-60
2023/08/23 14:26:59;;;;;;;4.35;4.07;;;;;;;;;;5016687;28;20120;-60
2023/08/23 14:29:24;;;;;;;4.55;4.18;;;;;;;;;;5034675;28;20068;-60